< < Back
Terminal Aerodrome Forecast


Current Version              Previous Versions:   1  2  3  4  5  6  7  8  9  

Terminal Aerodrome Forecast

270
FTUS42 KFFC 231700
TAFPDK
TAF
KPDK 231720Z 2318/2418 28005KT P6SM FEW250
     FM240100 00000KT P6SM BKN200
     FM241600 32003KT P6SM SKC=



Latest METAR

242
SAUS70 KWBC 240900 RRA
MTRPDK
METAR KPDK 240853Z AUTO 00000KT 10SM CLR 09/07 A3005 RMK AO2 SLP174
T00890067 53005


USA.gov is the U.S. government's official web portal to all federal, state and local government web resources and services.